CheckWX is a tool to help pilots better visualize weather data.  It is not intended as a substitute for an official pre-flight weather briefing.

04:35:20 UTC

KBAC METAR
Barnes County Municipal Airport
Valley City, North Dakota, USA
Current

20 mins ago

KBAC 240415Z AUTO 18004KT 10SM CLR 18/17 A3018 RMK AO2
Observed
Jul-24 @ 04:15 UTC
Wind
  • 180° at 4 KTS
Visibility
10 SM
Flight Rules
VFR
Cloud Levels
  • Clear skies
Temperature
18°C / 64°F
Dewpoint
17°C / 63°F
Humidity
94%
Altimeter
30.18" Hg
Pressure
1022.02 hPa
Previous

40 mins ago

KBAC 240355Z AUTO 19004KT 10SM CLR 18/17 A3018 RMK AO2
Observed
Jul-24 @ 03:55 UTC
Wind
  • 190° at 4 KTS
Visibility
10 SM
Flight Rules
VFR
Cloud Levels
  • Clear skies
Temperature
18°C / 64°F
Dewpoint
17°C / 63°F
Humidity
94%
Altimeter
30.18" Hg
Pressure
1022.02 hPa
Previous

60 mins ago

KBAC 240335Z AUTO 20003KT 10SM CLR 19/16 A3018 RMK AO2
Observed
Jul-24 @ 03:35 UTC
Wind
  • 200° at 3 KTS
Visibility
10 SM
Flight Rules
VFR
Cloud Levels
  • Clear skies
Temperature
19°C / 66°F
Dewpoint
16°C / 61°F
Humidity
83%
Altimeter
30.18" Hg
Pressure
1022.02 hPa